sensor_id;sensor_type;location;lat;lon;timestamp;P1;durP1;ratioP1;P2;durP2;ratioP2
82797;SDS011;72540;62.834;27.606;2023-09-12T00:01:23;22.45;;;13.57;;
82797;SDS011;72540;62.834;27.606;2023-09-12T00:03:49;23.23;;;13.80;;
82797;SDS011;72540;62.834;27.606;2023-09-12T00:06:15;20.05;;;13.32;;
82797;SDS011;72540;62.834;27.606;2023-09-12T00:08:40;22.67;;;14.20;;
82797;SDS011;72540;62.834;27.606;2023-09-12T00:11:07;18.98;;;12.98;;
82797;SDS011;72540;62.834;27.606;2023-09-12T00:13:40;23.45;;;13.63;;
82797;SDS011;72540;62.834;27.606;2023-09-12T00:16:07;20.42;;;13.27;;
82797;SDS011;72540;62.834;27.606;2023-09-12T00:18:36;18.92;;;13.40;;
82797;SDS011;72540;62.834;27.606;2023-09-12T00:21:03;18.85;;;14.27;;
82797;SDS011;72540;62.834;27.606;2023-09-12T00:23:29;23.63;;;14.32;;
82797;SDS011;72540;62.834;27.606;2023-09-12T00:25:56;19.63;;;12.90;;
82797;SDS011;72540;62.834;27.606;2023-09-12T00:28:22;20.98;;;13.95;;
82797;SDS011;72540;62.834;27.606;2023-09-12T00:30:48;20.77;;;14.23;;
82797;SDS011;72540;62.834;27.606;2023-09-12T00:33:13;21.23;;;14.57;;
82797;SDS011;72540;62.834;27.606;2023-09-12T00:35:39;20.58;;;13.75;;
82797;SDS011;72540;62.834;27.606;2023-09-12T00:38:05;21.55;;;13.85;;
82797;SDS011;72540;62.834;27.606;2023-09-12T00:40:34;22.40;;;14.40;;
82797;SDS011;72540;62.834;27.606;2023-09-12T00:42:59;23.02;;;13.52;;
82797;SDS011;72540;62.834;27.606;2023-09-12T00:45:25;22.83;;;13.93;;
82797;SDS011;72540;62.834;27.606;2023-09-12T00:47:51;19.67;;;13.50;;
82797;SDS011;72540;62.834;27.606;2023-09-12T00:50:18;20.73;;;13.88;;
82797;SDS011;72540;62.834;27.606;2023-09-12T00:52:46;24.45;;;15.82;;
82797;SDS011;72540;62.834;27.606;2023-09-12T00:55:11;19.58;;;13.07;;
82797;SDS011;72540;62.834;27.606;2023-09-12T00:57:37;21.05;;;15.13;;
82797;SDS011;72540;62.834;27.606;2023-09-12T01:00:04;21.98;;;14.20;;
82797;SDS011;72540;62.834;27.606;2023-09-12T01:02:38;20.98;;;15.00;;
82797;SDS011;72540;62.834;27.606;2023-09-12T01:05:06;20.23;;;14.38;;
82797;SDS011;72540;62.834;27.606;2023-09-12T01:07:32;24.73;;;16.13;;
82797;SDS011;72540;62.834;27.606;2023-09-12T01:10:01;23.23;;;13.95;;
82797;SDS011;72540;62.834;27.606;2023-09-12T01:12:28;19.98;;;13.48;;
82797;SDS011;72540;62.834;27.606;2023-09-12T01:14:55;19.63;;;13.65;;
82797;SDS011;72540;62.834;27.606;2023-09-12T01:17:21;21.77;;;15.57;;
82797;SDS011;72540;62.834;27.606;2023-09-12T01:19:47;21.15;;;14.63;;
82797;SDS011;72540;62.834;27.606;2023-09-12T01:25:24;21.50;;;14.55;;
82797;SDS011;72540;62.834;27.606;2023-09-12T01:27:58;19.40;;;13.45;;
82797;SDS011;72540;62.834;27.606;2023-09-12T01:30:25;18.63;;;13.15;;
82797;SDS011;72540;62.834;27.606;2023-09-12T01:32:53;20.35;;;13.82;;
82797;SDS011;72540;62.834;27.606;2023-09-12T01:35:19;18.73;;;14.00;;
82797;SDS011;72540;62.834;27.606;2023-09-12T01:37:45;19.52;;;13.90;;
82797;SDS011;72540;62.834;27.606;2023-09-12T01:40:10;22.10;;;14.48;;
82797;SDS011;72540;62.834;27.606;2023-09-12T01:42:38;19.08;;;13.57;;
82797;SDS011;72540;62.834;27.606;2023-09-12T01:45:09;20.08;;;14.20;;
82797;SDS011;72540;62.834;27.606;2023-09-12T01:47:36;29.63;;;14.57;;
82797;SDS011;72540;62.834;27.606;2023-09-12T01:50:02;21.25;;;13.65;;
82797;SDS011;72540;62.834;27.606;2023-09-12T01:52:28;21.38;;;13.57;;
82797;SDS011;72540;62.834;27.606;2023-09-12T01:54:54;20.33;;;13.60;;
82797;SDS011;72540;62.834;27.606;2023-09-12T01:57:21;20.40;;;12.75;;
82797;SDS011;72540;62.834;27.606;2023-09-12T01:59:47;17.40;;;12.73;;
82797;SDS011;72540;62.834;27.606;2023-09-12T02:02:17;18.83;;;12.52;;
82797;SDS011;72540;62.834;27.606;2023-09-12T02:07:44;21.58;;;13.30;;
82797;SDS011;72540;62.834;27.606;2023-09-12T02:10:11;18.50;;;13.05;;
82797;SDS011;72540;62.834;27.606;2023-09-12T02:12:37;21.60;;;12.75;;
82797;SDS011;72540;62.834;27.606;2023-09-12T02:15:03;19.90;;;12.07;;
82797;SDS011;72540;62.834;27.606;2023-09-12T02:17:29;18.77;;;12.63;;
82797;SDS011;72540;62.834;27.606;2023-09-12T02:19:55;18.05;;;13.07;;
82797;SDS011;72540;62.834;27.606;2023-09-12T02:22:21;18.45;;;12.52;;
82797;SDS011;72540;62.834;27.606;2023-09-12T02:24:46;18.80;;;12.88;;
82797;SDS011;72540;62.834;27.606;2023-09-12T02:27:12;18.38;;;11.90;;
82797;SDS011;72540;62.834;27.606;2023-09-12T02:29:39;18.02;;;12.40;;
82797;SDS011;72540;62.834;27.606;2023-09-12T02:32:05;19.15;;;11.85;;
82797;SDS011;72540;62.834;27.606;2023-09-12T02:34:32;17.17;;;12.05;;
82797;SDS011;72540;62.834;27.606;2023-09-12T02:36:58;18.83;;;12.10;;
82797;SDS011;72540;62.834;27.606;2023-09-12T02:39:23;20.52;;;13.02;;
82797;SDS011;72540;62.834;27.606;2023-09-12T02:41:49;18.08;;;12.05;;
82797;SDS011;72540;62.834;27.606;2023-09-12T02:44:15;18.48;;;12.20;;
82797;SDS011;72540;62.834;27.606;2023-09-12T02:46:41;17.08;;;11.45;;
82797;SDS011;72540;62.834;27.606;2023-09-12T02:49:07;20.13;;;11.55;;
82797;SDS011;72540;62.834;27.606;2023-09-12T02:51:32;20.02;;;12.63;;
82797;SDS011;72540;62.834;27.606;2023-09-12T02:53:58;18.88;;;12.55;;
82797;SDS011;72540;62.834;27.606;2023-09-12T02:56:24;19.00;;;12.00;;
82797;SDS011;72540;62.834;27.606;2023-09-12T02:58:49;20.10;;;13.68;;
82797;SDS011;72540;62.834;27.606;2023-09-12T03:01:15;19.98;;;13.55;;
82797;SDS011;72540;62.834;27.606;2023-09-12T03:03:42;17.90;;;11.80;;
82797;SDS011;72540;62.834;27.606;2023-09-12T03:06:07;17.17;;;11.57;;
82797;SDS011;72540;62.834;27.606;2023-09-12T03:08:33;16.92;;;12.13;;
82797;SDS011;72540;62.834;27.606;2023-09-12T03:10:58;17.25;;;11.13;;
82797;SDS011;72540;62.834;27.606;2023-09-12T03:13:27;19.67;;;12.65;;
82797;SDS011;72540;62.834;27.606;2023-09-12T03:15:53;19.65;;;12.38;;
82797;SDS011;72540;62.834;27.606;2023-09-12T03:18:19;18.80;;;12.52;;
82797;SDS011;72540;62.834;27.606;2023-09-12T03:20:45;23.50;;;12.57;;
82797;SDS011;72540;62.834;27.606;2023-09-12T03:23:10;18.83;;;12.32;;
82797;SDS011;72540;62.834;27.606;2023-09-12T03:25:36;18.90;;;11.35;;
82797;SDS011;72540;62.834;27.606;2023-09-12T03:28:05;18.67;;;13.05;;
82797;SDS011;72540;62.834;27.606;2023-09-12T03:30:35;18.45;;;12.40;;
82797;SDS011;72540;62.834;27.606;2023-09-12T03:33:02;19.00;;;13.07;;
82797;SDS011;72540;62.834;27.606;2023-09-12T03:35:28;19.23;;;12.68;;
82797;SDS011;72540;62.834;27.606;2023-09-12T03:37:55;17.95;;;12.93;;
82797;SDS011;72540;62.834;27.606;2023-09-12T03:40:20;21.33;;;13.30;;
82797;SDS011;72540;62.834;27.606;2023-09-12T03:42:46;19.38;;;12.90;;
82797;SDS011;72540;62.834;27.606;2023-09-12T03:45:12;20.00;;;12.90;;
82797;SDS011;72540;62.834;27.606;2023-09-12T03:47:37;18.58;;;12.38;;
82797;SDS011;72540;62.834;27.606;2023-09-12T03:50:03;21.67;;;14.00;;
82797;SDS011;72540;62.834;27.606;2023-09-12T03:52:29;22.42;;;14.57;;
82797;SDS011;72540;62.834;27.606;2023-09-12T03:54:55;21.33;;;13.90;;
82797;SDS011;72540;62.834;27.606;2023-09-12T03:57:21;24.67;;;14.93;;
82797;SDS011;72540;62.834;27.606;2023-09-12T03:59:47;21.23;;;14.18;;
82797;SDS011;72540;62.834;27.606;2023-09-12T04:02:13;21.13;;;14.45;;
82797;SDS011;72540;62.834;27.606;2023-09-12T04:04:38;29.13;;;15.25;;
82797;SDS011;72540;62.834;27.606;2023-09-12T04:07:04;21.42;;;13.93;;
82797;SDS011;72540;62.834;27.606;2023-09-12T04:09:30;21.70;;;13.85;;
82797;SDS011;72540;62.834;27.606;2023-09-12T04:11:56;22.27;;;13.68;;
82797;SDS011;72540;62.834;27.606;2023-09-12T04:14:22;25.15;;;14.43;;
82797;SDS011;72540;62.834;27.606;2023-09-12T04:16:48;24.25;;;14.27;;
82797;SDS011;72540;62.834;27.606;2023-09-12T04:19:13;26.20;;;16.95;;
82797;SDS011;72540;62.834;27.606;2023-09-12T04:21:39;22.40;;;15.32;;
82797;SDS011;72540;62.834;27.606;2023-09-12T04:24:06;24.55;;;14.88;;
82797;SDS011;72540;62.834;27.606;2023-09-12T04:26:32;24.98;;;15.25;;
82797;SDS011;72540;62.834;27.606;2023-09-12T04:28:58;23.27;;;14.65;;
82797;SDS011;72540;62.834;27.606;2023-09-12T04:31:23;24.58;;;15.75;;
82797;SDS011;72540;62.834;27.606;2023-09-12T04:33:53;23.27;;;15.25;;
82797;SDS011;72540;62.834;27.606;2023-09-12T04:36:19;25.25;;;15.45;;
82797;SDS011;72540;62.834;27.606;2023-09-12T04:38:45;24.63;;;14.88;;
82797;SDS011;72540;62.834;27.606;2023-09-12T04:41:12;21.63;;;14.93;;
82797;SDS011;72540;62.834;27.606;2023-09-12T04:43:41;26.27;;;16.95;;
82797;SDS011;72540;62.834;27.606;2023-09-12T04:46:08;27.23;;;16.50;;
82797;SDS011;72540;62.834;27.606;2023-09-12T04:48:34;22.98;;;15.30;;
82797;SDS011;72540;62.834;27.606;2023-09-12T04:50:59;26.88;;;15.93;;
82797;SDS011;72540;62.834;27.606;2023-09-12T04:53:25;23.95;;;15.35;;
82797;SDS011;72540;62.834;27.606;2023-09-12T04:55:53;26.38;;;16.25;;
82797;SDS011;72540;62.834;27.606;2023-09-12T04:58:19;28.25;;;16.27;;
82797;SDS011;72540;62.834;27.606;2023-09-12T05:00:45;25.73;;;15.68;;
82797;SDS011;72540;62.834;27.606;2023-09-12T05:03:11;24.73;;;15.57;;
82797;SDS011;72540;62.834;27.606;2023-09-12T05:05:36;23.55;;;15.23;;
82797;SDS011;72540;62.834;27.606;2023-09-12T05:08:02;26.52;;;16.50;;
82797;SDS011;72540;62.834;27.606;2023-09-12T05:10:29;22.83;;;15.05;;
82797;SDS011;72540;62.834;27.606;2023-09-12T05:12:55;27.08;;;16.77;;
82797;SDS011;72540;62.834;27.606;2023-09-12T05:15:21;25.88;;;15.13;;
82797;SDS011;72540;62.834;27.606;2023-09-12T05:17:46;20.65;;;14.75;;
82797;SDS011;72540;62.834;27.606;2023-09-12T05:20:12;24.83;;;15.77;;
82797;SDS011;72540;62.834;27.606;2023-09-12T05:22:37;23.02;;;14.75;;
82797;SDS011;72540;62.834;27.606;2023-09-12T05:25:03;23.10;;;16.27;;
82797;SDS011;72540;62.834;27.606;2023-09-12T05:27:29;26.00;;;16.13;;
82797;SDS011;72540;62.834;27.606;2023-09-12T05:29:55;24.50;;;17.23;;
82797;SDS011;72540;62.834;27.606;2023-09-12T05:32:20;23.88;;;15.02;;
82797;SDS011;72540;62.834;27.606;2023-09-12T05:34:46;22.95;;;14.93;;
82797;SDS011;72540;62.834;27.606;2023-09-12T05:37:14;20.33;;;14.82;;
82797;SDS011;72540;62.834;27.606;2023-09-12T05:39:40;24.15;;;14.43;;
82797;SDS011;72540;62.834;27.606;2023-09-12T05:42:07;22.95;;;15.23;;
82797;SDS011;72540;62.834;27.606;2023-09-12T05:44:32;21.75;;;14.45;;
82797;SDS011;72540;62.834;27.606;2023-09-12T05:46:58;23.38;;;14.85;;
82797;SDS011;72540;62.834;27.606;2023-09-12T05:49:24;24.33;;;14.80;;
82797;SDS011;72540;62.834;27.606;2023-09-12T05:51:49;23.10;;;14.45;;
82797;SDS011;72540;62.834;27.606;2023-09-12T05:54:16;23.33;;;15.18;;
82797;SDS011;72540;62.834;27.606;2023-09-12T05:56:42;20.85;;;14.95;;
82797;SDS011;72540;62.834;27.606;2023-09-12T05:59:07;21.27;;;15.02;;
82797;SDS011;72540;62.834;27.606;2023-09-12T06:01:33;21.35;;;14.05;;
82797;SDS011;72540;62.834;27.606;2023-09-12T06:03:59;24.15;;;14.90;;
82797;SDS011;72540;62.834;27.606;2023-09-12T06:06:24;26.80;;;16.77;;
82797;SDS011;72540;62.834;27.606;2023-09-12T06:08:50;23.60;;;14.82;;
82797;SDS011;72540;62.834;27.606;2023-09-12T06:11:17;23.27;;;15.60;;
82797;SDS011;72540;62.834;27.606;2023-09-12T06:13:43;22.50;;;15.45;;
82797;SDS011;72540;62.834;27.606;2023-09-12T06:16:08;24.65;;;15.82;;
82797;SDS011;72540;62.834;27.606;2023-09-12T06:18:34;22.95;;;15.15;;
82797;SDS011;72540;62.834;27.606;2023-09-12T06:21:00;20.98;;;15.38;;
82797;SDS011;72540;62.834;27.606;2023-09-12T06:23:29;21.63;;;14.38;;
82797;SDS011;72540;62.834;27.606;2023-09-12T06:25:56;23.20;;;14.63;;
82797;SDS011;72540;62.834;27.606;2023-09-12T06:28:28;25.60;;;15.38;;
82797;SDS011;72540;62.834;27.606;2023-09-12T06:30:55;22.88;;;15.43;;
82797;SDS011;72540;62.834;27.606;2023-09-12T06:33:24;27.25;;;17.48;;
82797;SDS011;72540;62.834;27.606;2023-09-12T06:35:51;24.55;;;15.85;;
82797;SDS011;72540;62.834;27.606;2023-09-12T06:38:18;24.95;;;15.93;;
82797;SDS011;72540;62.834;27.606;2023-09-12T06:40:45;27.25;;;16.92;;
82797;SDS011;72540;62.834;27.606;2023-09-12T06:43:14;21.23;;;14.00;;
82797;SDS011;72540;62.834;27.606;2023-09-12T06:45:40;22.77;;;15.13;;
82797;SDS011;72540;62.834;27.606;2023-09-12T06:48:06;22.50;;;14.77;;
82797;SDS011;72540;62.834;27.606;2023-09-12T06:50:33;23.15;;;14.20;;
82797;SDS011;72540;62.834;27.606;2023-09-12T06:52:59;25.23;;;15.40;;
82797;SDS011;72540;62.834;27.606;2023-09-12T06:55:25;22.85;;;14.73;;
82797;SDS011;72540;62.834;27.606;2023-09-12T06:57:50;24.30;;;17.05;;
82797;SDS011;72540;62.834;27.606;2023-09-12T07:00:16;24.35;;;16.33;;
82797;SDS011;72540;62.834;27.606;2023-09-12T07:02:42;24.63;;;16.85;;
82797;SDS011;72540;62.834;27.606;2023-09-12T07:05:08;24.25;;;15.13;;
82797;SDS011;72540;62.834;27.606;2023-09-12T07:07:34;21.67;;;14.50;;
82797;SDS011;72540;62.834;27.606;2023-09-12T07:09:59;23.42;;;15.93;;
82797;SDS011;72540;62.834;27.606;2023-09-12T07:12:28;26.10;;;16.55;;
82797;SDS011;72540;62.834;27.606;2023-09-12T07:14:54;21.45;;;14.13;;
82797;SDS011;72540;62.834;27.606;2023-09-12T07:17:21;24.00;;;15.50;;
82797;SDS011;72540;62.834;27.606;2023-09-12T07:19:47;23.23;;;15.90;;
82797;SDS011;72540;62.834;27.606;2023-09-12T07:22:12;22.85;;;14.75;;
82797;SDS011;72540;62.834;27.606;2023-09-12T07:24:38;20.42;;;13.82;;
82797;SDS011;72540;62.834;27.606;2023-09-12T07:27:04;21.45;;;14.48;;
82797;SDS011;72540;62.834;27.606;2023-09-12T07:29:31;21.50;;;14.98;;
82797;SDS011;72540;62.834;27.606;2023-09-12T07:31:56;19.73;;;14.32;;
82797;SDS011;72540;62.834;27.606;2023-09-12T07:34:23;21.73;;;14.32;;
82797;SDS011;72540;62.834;27.606;2023-09-12T07:36:49;23.10;;;14.90;;
82797;SDS011;72540;62.834;27.606;2023-09-12T07:39:16;18.73;;;12.38;;
82797;SDS011;72540;62.834;27.606;2023-09-12T07:41:42;25.35;;;13.60;;
82797;SDS011;72540;62.834;27.606;2023-09-12T07:44:08;19.20;;;13.63;;
82797;SDS011;72540;62.834;27.606;2023-09-12T07:46:37;18.58;;;12.80;;
82797;SDS011;72540;62.834;27.606;2023-09-12T07:49:03;18.95;;;13.55;;
82797;SDS011;72540;62.834;27.606;2023-09-12T07:51:29;19.50;;;12.93;;
82797;SDS011;72540;62.834;27.606;2023-09-12T07:53:54;20.13;;;13.10;;
82797;SDS011;72540;62.834;27.606;2023-09-12T07:56:20;18.60;;;12.77;;
82797;SDS011;72540;62.834;27.606;2023-09-12T07:58:45;15.90;;;11.88;;
82797;SDS011;72540;62.834;27.606;2023-09-12T08:01:11;17.27;;;12.35;;
82797;SDS011;72540;62.834;27.606;2023-09-12T08:03:37;21.52;;;12.35;;
82797;SDS011;72540;62.834;27.606;2023-09-12T08:06:05;16.58;;;12.15;;
82797;SDS011;72540;62.834;27.606;2023-09-12T08:08:31;20.05;;;12.55;;
82797;SDS011;72540;62.834;27.606;2023-09-12T08:10:57;18.17;;;13.38;;
82797;SDS011;72540;62.834;27.606;2023-09-12T08:13:25;19.83;;;13.25;;
82797;SDS011;72540;62.834;27.606;2023-09-12T08:15:52;19.02;;;12.82;;
82797;SDS011;72540;62.834;27.606;2023-09-12T08:18:18;17.95;;;11.27;;
82797;SDS011;72540;62.834;27.606;2023-09-12T08:20:44;17.15;;;11.70;;
82797;SDS011;72540;62.834;27.606;2023-09-12T08:23:10;16.95;;;12.57;;
82797;SDS011;72540;62.834;27.606;2023-09-12T08:25:36;17.38;;;11.25;;
82797;SDS011;72540;62.834;27.606;2023-09-12T08:28:01;15.60;;;10.75;;
82797;SDS011;72540;62.834;27.606;2023-09-12T08:30:27;21.17;;;11.68;;
82797;SDS011;72540;62.834;27.606;2023-09-12T08:32:55;16.25;;;11.05;;
82797;SDS011;72540;62.834;27.606;2023-09-12T08:35:21;15.57;;;11.57;;
82797;SDS011;72540;62.834;27.606;2023-09-12T08:37:47;15.18;;;10.63;;
82797;SDS011;72540;62.834;27.606;2023-09-12T08:40:13;15.27;;;10.65;;
82797;SDS011;72540;62.834;27.606;2023-09-12T08:42:40;15.55;;;10.98;;
82797;SDS011;72540;62.834;27.606;2023-09-12T08:45:18;18.30;;;10.98;;
82797;SDS011;72540;62.834;27.606;2023-09-12T08:47:45;15.63;;;10.77;;
82797;SDS011;72540;62.834;27.606;2023-09-12T08:50:17;16.13;;;11.27;;
82797;SDS011;72540;62.834;27.606;2023-09-12T08:52:44;17.00;;;11.55;;
82797;SDS011;72540;62.834;27.606;2023-09-12T08:55:11;17.92;;;11.15;;
82797;SDS011;72540;62.834;27.606;2023-09-12T08:57:38;19.17;;;11.68;;
82797;SDS011;72540;62.834;27.606;2023-09-12T09:00:05;16.65;;;11.57;;
82797;SDS011;72540;62.834;27.606;2023-09-12T09:02:37;15.48;;;10.80;;
82797;SDS011;72540;62.834;27.606;2023-09-12T09:05:04;19.13;;;12.27;;
82797;SDS011;72540;62.834;27.606;2023-09-12T09:07:33;16.85;;;10.90;;
82797;SDS011;72540;62.834;27.606;2023-09-12T09:10:07;15.77;;;10.75;;
82797;SDS011;72540;62.834;27.606;2023-09-12T09:12:35;16.85;;;11.90;;
82797;SDS011;72540;62.834;27.606;2023-09-12T09:15:35;18.48;;;11.65;;
82797;SDS011;72540;62.834;27.606;2023-09-12T09:17:55;16.80;;;11.27;;
82797;SDS011;72540;62.834;27.606;2023-09-12T09:23:06;14.55;;;11.10;;
82797;SDS011;72540;62.834;27.606;2023-09-12T09:25:39;15.68;;;10.95;;
82797;SDS011;72540;62.834;27.606;2023-09-12T09:28:19;17.63;;;10.57;;
82797;SDS011;72540;62.834;27.606;2023-09-12T09:30:47;17.35;;;11.13;;
82797;SDS011;72540;62.834;27.606;2023-09-12T09:33:14;16.73;;;11.80;;
82797;SDS011;72540;62.834;27.606;2023-09-12T09:35:45;18.98;;;11.73;;
82797;SDS011;72540;62.834;27.606;2023-09-12T09:38:12;16.20;;;11.35;;
82797;SDS011;72540;62.834;27.606;2023-09-12T09:40:42;16.30;;;11.85;;
82797;SDS011;72540;62.834;27.606;2023-09-12T09:43:08;15.60;;;11.45;;
82797;SDS011;72540;62.834;27.606;2023-09-12T09:45:42;18.70;;;11.88;;
82797;SDS011;72540;62.834;27.606;2023-09-12T09:48:09;16.42;;;11.77;;
82797;SDS011;72540;62.834;27.606;2023-09-12T09:50:35;15.20;;;11.00;;
82797;SDS011;72540;62.834;27.606;2023-09-12T09:53:02;15.18;;;11.25;;
82797;SDS011;72540;62.834;27.606;2023-09-12T09:55:30;17.35;;;11.50;;
82797;SDS011;72540;62.834;27.606;2023-09-12T09:57:57;15.05;;;11.27;;
82797;SDS011;72540;62.834;27.606;2023-09-12T10:00:23;16.83;;;11.32;;
82797;SDS011;72540;62.834;27.606;2023-09-12T10:02:50;18.75;;;11.35;;
82797;SDS011;72540;62.834;27.606;2023-09-12T10:05:19;14.70;;;11.40;;
82797;SDS011;72540;62.834;27.606;2023-09-12T10:07:47;16.75;;;11.35;;
82797;SDS011;72540;62.834;27.606;2023-09-12T10:12:43;17.50;;;11.93;;
82797;SDS011;72540;62.834;27.606;2023-09-12T10:15:17;17.70;;;11.80;;
82797;SDS011;72540;62.834;27.606;2023-09-12T10:17:46;16.65;;;12.05;;
82797;SDS011;72540;62.834;27.606;2023-09-12T10:20:16;16.52;;;11.50;;
82797;SDS011;72540;62.834;27.606;2023-09-12T10:22:48;16.13;;;10.80;;
82797;SDS011;72540;62.834;27.606;2023-09-12T10:25:22;15.13;;;10.68;;
82797;SDS011;72540;62.834;27.606;2023-09-12T10:27:49;15.40;;;10.70;;
82797;SDS011;72540;62.834;27.606;2023-09-12T10:30:15;18.27;;;11.13;;
82797;SDS011;72540;62.834;27.606;2023-09-12T10:32:42;16.55;;;10.82;;
82797;SDS011;72540;62.834;27.606;2023-09-12T10:35:11;15.40;;;11.30;;
82797;SDS011;72540;62.834;27.606;2023-09-12T10:37:37;15.00;;;11.13;;
82797;SDS011;72540;62.834;27.606;2023-09-12T10:40:07;15.38;;;10.70;;
82797;SDS011;72540;62.834;27.606;2023-09-12T10:42:34;15.85;;;11.80;;
82797;SDS011;72540;62.834;27.606;2023-09-12T10:45:00;16.20;;;11.20;;
82797;SDS011;72540;62.834;27.606;2023-09-12T10:47:26;17.17;;;11.27;;
82797;SDS011;72540;62.834;27.606;2023-09-12T10:49:53;16.40;;;10.73;;
82797;SDS011;72540;62.834;27.606;2023-09-12T10:52:27;13.82;;;10.95;;
82797;SDS011;72540;62.834;27.606;2023-09-12T10:54:54;14.13;;;10.20;;
82797;SDS011;72540;62.834;27.606;2023-09-12T10:57:20;14.75;;;10.30;;
82797;SDS011;72540;62.834;27.606;2023-09-12T11:02:31;17.15;;;9.80;;
82797;SDS011;72540;62.834;27.606;2023-09-12T11:05:05;17.30;;;10.60;;
82797;SDS011;72540;62.834;27.606;2023-09-12T11:12:40;13.63;;;9.85;;
82797;SDS011;72540;62.834;27.606;2023-09-12T11:15:06;15.98;;;10.52;;
82797;SDS011;72540;62.834;27.606;2023-09-12T11:17:39;14.27;;;10.30;;
82797;SDS011;72540;62.834;27.606;2023-09-12T11:20:05;12.82;;;9.95;;
82797;SDS011;72540;62.834;27.606;2023-09-12T11:22:39;13.48;;;9.82;;
82797;SDS011;72540;62.834;27.606;2023-09-12T11:25:19;13.90;;;9.18;;
82797;SDS011;72540;62.834;27.606;2023-09-12T11:30:17;11.68;;;8.75;;
82797;SDS011;72540;62.834;27.606;2023-09-12T11:32:47;14.23;;;9.38;;
82797;SDS011;72540;62.834;27.606;2023-09-12T11:35:14;11.82;;;9.43;;
82797;SDS011;72540;62.834;27.606;2023-09-12T11:37:47;12.30;;;8.30;;
82797;SDS011;72540;62.834;27.606;2023-09-12T11:40:18;13.65;;;9.55;;
82797;SDS011;72540;62.834;27.606;2023-09-12T11:42:51;13.45;;;9.52;;
82797;SDS011;72540;62.834;27.606;2023-09-12T11:45:18;13.70;;;9.80;;
82797;SDS011;72540;62.834;27.606;2023-09-12T11:47:45;15.18;;;9.65;;
82797;SDS011;72540;62.834;27.606;2023-09-12T11:50:30;13.30;;;9.13;;
82797;SDS011;72540;62.834;27.606;2023-09-12T11:53:18;14.30;;;9.70;;
82797;SDS011;72540;62.834;27.606;2023-09-12T11:55:47;14.20;;;9.30;;
82797;SDS011;72540;62.834;27.606;2023-09-12T11:58:17;14.45;;;8.88;;
82797;SDS011;72540;62.834;27.606;2023-09-12T12:00:51;12.77;;;9.02;;
82797;SDS011;72540;62.834;27.606;2023-09-12T12:03:18;13.68;;;8.85;;
82797;SDS011;72540;62.834;27.606;2023-09-12T12:05:45;13.13;;;9.10;;
82797;SDS011;72540;62.834;27.606;2023-09-12T12:08:11;13.82;;;9.32;;
82797;SDS011;72540;62.834;27.606;2023-09-12T12:10:37;15.02;;;9.10;;
82797;SDS011;72540;62.834;27.606;2023-09-12T12:13:05;12.23;;;8.77;;
82797;SDS011;72540;62.834;27.606;2023-09-12T12:15:31;12.27;;;8.85;;
82797;SDS011;72540;62.834;27.606;2023-09-12T12:17:57;13.68;;;9.27;;
82797;SDS011;72540;62.834;27.606;2023-09-12T12:20:23;12.20;;;8.20;;
82797;SDS011;72540;62.834;27.606;2023-09-12T12:22:49;14.80;;;8.52;;
82797;SDS011;72540;62.834;27.606;2023-09-12T12:25:17;14.02;;;9.95;;
82797;SDS011;72540;62.834;27.606;2023-09-12T12:27:43;11.88;;;8.70;;
82797;SDS011;72540;62.834;27.606;2023-09-12T12:30:10;14.30;;;9.32;;
82797;SDS011;72540;62.834;27.606;2023-09-12T12:32:44;12.88;;;9.50;;
82797;SDS011;72540;62.834;27.606;2023-09-12T12:35:18;12.85;;;8.93;;
82797;SDS011;72540;62.834;27.606;2023-09-12T12:37:44;12.48;;;8.85;;
82797;SDS011;72540;62.834;27.606;2023-09-12T12:40:14;14.02;;;9.27;;
82797;SDS011;72540;62.834;27.606;2023-09-12T12:42:40;15.82;;;8.65;;
82797;SDS011;72540;62.834;27.606;2023-09-12T12:45:12;12.60;;;8.52;;
82797;SDS011;72540;62.834;27.606;2023-09-12T12:47:38;17.10;;;12.75;;
82797;SDS011;72540;62.834;27.606;2023-09-12T12:50:10;11.50;;;8.52;;
82797;SDS011;72540;62.834;27.606;2023-09-12T12:52:37;14.10;;;8.98;;
82797;SDS011;72540;62.834;27.606;2023-09-12T12:55:07;13.63;;;8.75;;
82797;SDS011;72540;62.834;27.606;2023-09-12T12:57:36;12.68;;;8.98;;
82797;SDS011;72540;62.834;27.606;2023-09-12T13:00:04;15.82;;;8.60;;
82797;SDS011;72540;62.834;27.606;2023-09-12T13:02:32;12.75;;;9.35;;
82797;SDS011;72540;62.834;27.606;2023-09-12T13:04:57;12.00;;;8.77;;
82797;SDS011;72540;62.834;27.606;2023-09-12T13:07:23;12.98;;;10.07;;
82797;SDS011;72540;62.834;27.606;2023-09-12T13:09:49;12.77;;;8.70;;
82797;SDS011;72540;62.834;27.606;2023-09-12T13:12:15;12.70;;;8.68;;
82797;SDS011;72540;62.834;27.606;2023-09-12T13:14:42;12.40;;;8.82;;
82797;SDS011;72540;62.834;27.606;2023-09-12T13:17:09;14.85;;;9.90;;
82797;SDS011;72540;62.834;27.606;2023-09-12T13:19:35;12.15;;;8.93;;
82797;SDS011;72540;62.834;27.606;2023-09-12T13:22:01;15.13;;;9.60;;
82797;SDS011;72540;62.834;27.606;2023-09-12T13:24:26;13.75;;;9.20;;
82797;SDS011;72540;62.834;27.606;2023-09-12T13:26:52;12.85;;;8.88;;
82797;SDS011;72540;62.834;27.606;2023-09-12T13:29:19;17.20;;;8.95;;
82797;SDS011;72540;62.834;27.606;2023-09-12T13:31:44;15.40;;;9.63;;
82797;SDS011;72540;62.834;27.606;2023-09-12T13:34:10;13.48;;;8.98;;
82797;SDS011;72540;62.834;27.606;2023-09-12T13:36:36;16.75;;;8.88;;
82797;SDS011;72540;62.834;27.606;2023-09-12T13:39:02;13.70;;;9.05;;
82797;SDS011;72540;62.834;27.606;2023-09-12T13:41:29;15.25;;;9.15;;
82797;SDS011;72540;62.834;27.606;2023-09-12T13:43:55;12.02;;;8.45;;
82797;SDS011;72540;62.834;27.606;2023-09-12T13:46:20;15.05;;;9.05;;
82797;SDS011;72540;62.834;27.606;2023-09-12T13:48:46;16.27;;;9.25;;
82797;SDS011;72540;62.834;27.606;2023-09-12T13:51:12;13.70;;;9.63;;
82797;SDS011;72540;62.834;27.606;2023-09-12T13:53:38;14.18;;;9.57;;
82797;SDS011;72540;62.834;27.606;2023-09-12T13:56:05;14.85;;;9.85;;
82797;SDS011;72540;62.834;27.606;2023-09-12T13:58:31;12.10;;;8.80;;
82797;SDS011;72540;62.834;27.606;2023-09-12T14:00:58;13.20;;;9.40;;
82797;SDS011;72540;62.834;27.606;2023-09-12T14:03:24;14.35;;;10.20;;
82797;SDS011;72540;62.834;27.606;2023-09-12T14:05:50;12.70;;;9.20;;
82797;SDS011;72540;62.834;27.606;2023-09-12T14:08:15;12.07;;;8.73;;
82797;SDS011;72540;62.834;27.606;2023-09-12T14:10:41;12.60;;;8.15;;
82797;SDS011;72540;62.834;27.606;2023-09-12T14:13:08;14.20;;;9.02;;
82797;SDS011;72540;62.834;27.606;2023-09-12T14:15:34;17.85;;;14.63;;
82797;SDS011;72540;62.834;27.606;2023-09-12T14:17:59;17.98;;;10.18;;
82797;SDS011;72540;62.834;27.606;2023-09-12T14:20:25;14.43;;;9.25;;
82797;SDS011;72540;62.834;27.606;2023-09-12T14:22:51;13.02;;;8.85;;
82797;SDS011;72540;62.834;27.606;2023-09-12T14:25:16;14.27;;;8.98;;
82797;SDS011;72540;62.834;27.606;2023-09-12T14:27:42;13.70;;;9.15;;
82797;SDS011;72540;62.834;27.606;2023-09-12T14:30:09;13.70;;;9.30;;
82797;SDS011;72540;62.834;27.606;2023-09-12T14:32:36;14.27;;;9.38;;